createdAt,value
2019-05-25T00:02:19.423Z,72.94
2019-05-25T00:05:09.211Z,72.73
2019-05-25T00:07:58.974Z,72.94
2019-05-25T00:10:48.750Z,73.10
2019-05-25T00:13:38.550Z,72.95
2019-05-25T00:19:25.057Z,72.86
2019-05-25T00:22:14.848Z,72.85
2019-05-25T00:25:04.833Z,72.95
2019-05-25T00:27:54.615Z,73.46
2019-05-25T00:30:44.428Z,73.64
2019-05-25T00:33:34.178Z,74.01
2019-05-25T00:36:24.006Z,74.35
2019-05-25T00:39:13.799Z,74.56
2019-05-25T00:42:03.575Z,74.80
2019-05-25T00:44:53.323Z,75.29
2019-05-25T00:47:43.123Z,75.58
2019-05-25T00:50:32.865Z,75.71
2019-05-25T00:53:22.639Z,75.99
2019-05-25T00:55:53.004Z,76.17
2019-05-25T00:58:42.787Z,76.19
2019-05-25T01:01:32.514Z,76.27
2019-05-25T01:04:22.301Z,76.35
2019-05-25T01:07:12.022Z,76.76
2019-05-25T01:10:02.260Z,77.10
2019-05-25T01:12:53.270Z,77.69
2019-05-25T01:15:43.049Z,78.19
2019-05-25T01:18:32.803Z,78.50
2019-05-25T01:21:22.575Z,78.85
2019-05-25T01:24:12.343Z,79.27
2019-05-25T01:27:02.107Z,79.65
2019-05-25T01:29:51.861Z,79.93
2019-05-25T01:32:41.721Z,80.11
2019-05-25T01:35:31.405Z,80.23
2019-05-25T01:41:37.315Z,80.29
2019-05-25T01:44:27.106Z,80.41
2019-05-25T01:47:16.862Z,80.25
2019-05-25T01:50:06.889Z,79.92
2019-05-25T01:52:37.358Z,80.00
2019-05-25T01:55:27.089Z,80.08
2019-05-25T01:57:57.503Z,80.21
2019-05-25T02:00:47.252Z,80.45
2019-05-25T02:03:37.056Z,80.95
2019-05-25T02:06:07.481Z,81.16
2019-05-25T02:08:57.257Z,81.10
2019-05-25T02:11:46.992Z,81.04
2019-05-25T02:14:17.370Z,81.49
2019-05-25T02:17:07.100Z,82.01
2019-05-25T02:19:56.873Z,82.19
2019-05-25T02:22:46.626Z,82.26
2019-05-25T02:25:18.758Z,81.98
2019-05-25T02:28:08.660Z,81.90
2019-05-25T02:30:58.430Z,82.10
2019-05-25T02:33:48.173Z,82.91
2019-05-25T02:36:37.959Z,83.69
2019-05-25T02:39:27.731Z,84.66
2019-05-25T02:42:17.502Z,85.61
2019-05-25T02:48:28.500Z,86.89
2019-05-25T02:51:18.258Z,86.42
2019-05-25T02:54:08.159Z,85.66
2019-05-25T02:56:57.909Z,85.17
2019-05-25T02:59:47.693Z,84.82
2019-05-25T03:02:37.563Z,84.54
2019-05-25T03:05:27.436Z,84.36
2019-05-25T03:08:17.186Z,84.32
2019-05-25T03:11:06.952Z,84.51
2019-05-25T03:13:56.886Z,84.42
2019-05-25T03:16:46.631Z,84.12
2019-05-25T03:19:17.090Z,83.62
2019-05-25T03:22:06.841Z,83.47
2019-05-25T03:24:37.222Z,83.66
2019-05-25T03:27:26.985Z,83.29
2019-05-25T03:30:56.190Z,82.83
2019-05-25T03:33:45.931Z,82.57
2019-05-25T03:36:35.736Z,82.24
2019-05-25T03:39:25.486Z,82.09
2019-05-25T03:41:55.857Z,82.16
2019-05-25T03:44:45.619Z,82.07
2019-05-25T03:47:35.405Z,82.02
2019-05-25T03:50:25.254Z,81.73
2019-05-25T03:53:15.043Z,81.70
2019-05-25T03:56:06.362Z,81.79
2019-05-25T03:58:48.053Z,81.94
2019-05-25T04:01:38.155Z,81.98
2019-05-25T04:04:28.034Z,81.97
2019-05-25T04:07:17.800Z,81.92
2019-05-25T04:13:24.672Z,81.61
2019-05-25T04:16:02.178Z,81.30
2019-05-25T04:18:51.960Z,80.78
2019-05-25T04:21:41.715Z,79.91
2019-05-25T04:24:31.506Z,79.32
2019-05-25T04:27:21.227Z,78.81
2019-05-25T04:30:11.079Z,77.90
2019-05-25T04:33:00.853Z,77.29
2019-05-25T04:35:50.625Z,76.79
2019-05-25T04:38:40.509Z,76.57
2019-05-25T04:41:30.258Z,76.18
2019-05-25T04:44:20.004Z,75.57
2019-05-25T04:47:09.760Z,75.00
2019-05-25T04:50:18.551Z,73.88
2019-05-25T04:53:08.284Z,73.33
2019-05-25T04:55:58.033Z,72.98
2019-05-25T04:58:47.805Z,72.85
2019-05-25T05:01:37.552Z,72.96
2019-05-25T05:04:27.335Z,73.15
2019-05-25T05:07:17.088Z,73.34
2019-05-25T05:10:07.474Z,73.06
2019-05-25T05:12:57.247Z,73.02
2019-05-25T05:15:47.022Z,72.87
2019-05-25T05:18:18.245Z,72.73
2019-05-25T05:21:08.052Z,72.71
2019-05-25T05:23:57.828Z,72.59
2019-05-25T05:26:55.817Z,72.47
2019-05-25T05:29:39.068Z,72.42
2019-05-25T05:32:28.876Z,71.99
2019-05-25T05:35:18.631Z,71.08
2019-05-25T05:38:08.399Z,70.51
2019-05-25T05:44:22.511Z,69.32
2019-05-25T05:56:05.774Z,66.75
2019-05-25T05:58:55.590Z,65.91
2019-05-25T06:01:45.445Z,65.32
2019-05-25T06:04:35.289Z,64.51
2019-05-25T06:07:27.400Z,64.20
2019-05-25T06:10:47.672Z,63.37
2019-05-25T06:13:37.443Z,62.20
2019-05-25T06:16:27.266Z,62.10
2019-05-25T06:19:17.051Z,62.40
2019-05-25T06:22:06.873Z,62.16
2019-05-25T06:24:56.662Z,62.47
2019-05-25T06:27:46.883Z,61.75
2019-05-25T06:30:20.313Z,61.66
2019-05-25T06:33:10.152Z,60.98
2019-05-25T06:35:59.944Z,60.10
2019-05-25T06:38:49.726Z,58.98
2019-05-25T06:41:40.328Z,57.76
2019-05-25T06:44:30.138Z,56.98
2019-05-25T06:50:46.704Z,57.02
2019-05-25T06:53:17.162Z,54.85
2019-05-25T06:56:07.288Z,54.62
2019-05-25T06:58:57.045Z,54.15
2019-05-25T07:01:46.815Z,52.88
2019-05-25T07:04:17.205Z,52.80
2019-05-25T07:07:07.003Z,52.58
2019-05-25T07:09:56.766Z,51.30
2019-05-25T07:12:46.555Z,49.07
2019-05-25T07:15:18.657Z,49.51
2019-05-25T07:18:08.449Z,49.06
2019-05-25T07:20:58.239Z,49.01
2019-05-25T07:23:48.022Z,48.76
2019-05-25T07:26:18.406Z,47.67
2019-05-25T07:29:08.158Z,47.19
2019-05-25T07:31:57.926Z,45.64
2019-05-25T07:34:28.321Z,45.03
2019-05-25T07:37:18.084Z,45.48
2019-05-25T07:40:47.317Z,44.77
2019-05-25T07:43:17.685Z,42.95
2019-05-25T07:46:07.500Z,42.05
2019-05-25T07:48:37.901Z,43.37
2019-05-25T07:51:08.318Z,44.45
2019-05-25T07:53:58.088Z,44.21
2019-05-25T07:56:50.643Z,44.48
2019-05-25T07:59:40.410Z,44.88
2019-05-25T08:02:30.195Z,45.02
2019-05-25T08:05:19.955Z,44.98
2019-05-25T08:08:09.850Z,42.31
2019-05-25T08:10:59.659Z,42.58
2019-05-25T08:13:49.453Z,42.63
2019-05-25T08:16:39.255Z,42.23
2019-05-25T08:19:29.043Z,41.49
2019-05-25T08:22:18.844Z,40.82
2019-05-25T08:24:49.267Z,40.84
2019-05-25T08:27:39.108Z,40.60
2019-05-25T08:30:28.925Z,39.24
2019-05-25T08:33:18.694Z,39.07
2019-05-25T08:36:08.519Z,39.07
2019-05-25T08:38:58.315Z,38.95
2019-05-25T08:41:48.135Z,39.05
2019-05-25T08:44:37.929Z,39.31
2019-05-25T08:47:08.455Z,39.20
2019-05-25T08:49:58.232Z,37.79
2019-05-25T08:52:48.025Z,37.42
2019-05-25T08:55:37.859Z,35.93
2019-05-25T08:58:08.662Z,35.08
2019-05-25T09:00:39.297Z,34.44
2019-05-25T09:03:29.161Z,36.19
2019-05-25T09:06:18.943Z,36.18
2019-05-25T09:09:08.947Z,34.32
2019-05-25T09:11:58.767Z,32.63
2019-05-25T09:14:48.572Z,31.72
2019-05-25T09:17:38.337Z,31.88
2019-05-25T09:20:30.118Z,31.79
2019-05-25T09:23:00.558Z,32.12
2019-05-25T09:25:50.359Z,31.41
2019-05-25T09:28:40.178Z,32.42
2019-05-25T09:31:30.014Z,32.33
2019-05-25T09:34:19.784Z,32.01
2019-05-25T09:37:09.556Z,31.47
2019-05-25T09:39:59.365Z,32.16
2019-05-25T09:42:49.284Z,31.97
2019-05-25T09:45:39.064Z,31.78
2019-05-25T09:48:28.829Z,31.38
2019-05-25T09:51:18.662Z,30.89
2019-05-25T09:54:08.468Z,30.88
2019-05-25T09:56:58.324Z,30.91
2019-05-25T09:59:28.749Z,30.80
2019-05-25T10:02:18.521Z,30.58
2019-05-25T10:08:43.298Z,31.10
2019-05-25T10:11:33.171Z,30.94
2019-05-25T10:14:22.983Z,31.37
2019-05-25T10:17:12.773Z,31.79
2019-05-25T10:23:18.759Z,30.25
2019-05-25T10:26:08.659Z,30.39
2019-05-25T10:28:58.409Z,30.42
2019-05-25T10:31:48.275Z,30.41
2019-05-25T10:34:38.047Z,29.88
2019-05-25T10:37:27.919Z,29.66
2019-05-25T10:40:17.657Z,30.08
2019-05-25T10:46:22.822Z,30.00
2019-05-25T10:49:12.607Z,31.32
2019-05-25T10:52:02.434Z,30.95
2019-05-25T10:54:32.822Z,32.45
2019-05-25T10:57:22.615Z,31.68
2019-05-25T11:03:47.366Z,31.14
2019-05-25T11:09:21.117Z,28.59
2019-05-25T11:12:10.927Z,28.71
2019-05-25T11:15:00.741Z,29.28
2019-05-25T11:17:51.554Z,28.30
2019-05-25T11:20:41.397Z,29.11
2019-05-25T11:23:31.154Z,29.49
2019-05-25T11:26:20.951Z,29.41
2019-05-25T11:29:10.714Z,29.29
2019-05-25T11:32:04.470Z,29.37
2019-05-25T11:34:43.999Z,28.15
2019-05-25T11:37:33.862Z,27.91
2019-05-25T11:40:23.693Z,28.14
2019-05-25T11:43:13.487Z,28.37
2019-05-25T11:46:03.241Z,28.66
2019-05-25T11:48:53.031Z,29.82
2019-05-25T11:51:42.793Z,29.66
2019-05-25T11:54:13.170Z,29.43
2019-05-25T11:57:02.908Z,29.67
2019-05-25T11:59:33.478Z,28.32
2019-05-25T12:02:23.214Z,28.38
2019-05-25T12:08:29.135Z,28.27
2019-05-25T12:11:18.959Z,27.25
2019-05-25T12:14:08.781Z,26.58
2019-05-25T12:16:58.599Z,25.60
2019-05-25T12:19:48.417Z,25.75
2019-05-25T12:25:20.983Z,25.28
2019-05-25T12:28:10.750Z,25.61
2019-05-25T12:31:00.555Z,24.33
2019-05-25T12:33:50.301Z,24.42
2019-05-25T12:36:40.080Z,25.22
2019-05-25T12:39:12.070Z,24.62
2019-05-25T12:42:01.842Z,25.21
2019-05-25T12:44:51.576Z,25.35
2019-05-25T12:47:41.397Z,25.35
2019-05-25T12:50:31.142Z,25.27
2019-05-25T12:53:21.017Z,25.38
2019-05-25T12:56:10.791Z,26.23
2019-05-25T12:59:00.563Z,27.65
2019-05-25T13:01:50.297Z,28.20
2019-05-25T13:04:40.099Z,28.41
2019-05-25T13:07:29.882Z,28.19
2019-05-25T13:10:19.693Z,27.29
2019-05-25T13:13:09.467Z,25.87
2019-05-25T13:15:59.262Z,25.10
2019-05-25T13:18:49.017Z,24.37
2019-05-25T13:21:38.786Z,24.66
2019-05-25T13:24:28.531Z,23.78
2019-05-25T13:27:18.353Z,23.39
2019-05-25T13:33:10.038Z,23.13
2019-05-25T13:35:59.808Z,22.72
2019-05-25T13:38:49.602Z,22.08
2019-05-25T13:41:39.367Z,22.37
2019-05-25T13:44:29.157Z,22.82
2019-05-25T13:47:18.899Z,23.25
2019-05-25T13:53:25.163Z,22.68
2019-05-25T13:56:16.705Z,21.73
2019-05-25T13:59:06.503Z,21.78
2019-05-25T14:01:56.252Z,21.54
2019-05-25T14:04:46.063Z,22.34
2019-05-25T14:07:35.858Z,22.11
2019-05-25T14:10:25.651Z,21.22
2019-05-25T14:13:15.466Z,19.92
2019-05-25T14:15:45.869Z,19.34
2019-05-25T14:18:35.645Z,18.96
2019-05-25T14:21:25.444Z,18.73
2019-05-25T14:24:15.221Z,17.24
2019-05-25T14:27:05.006Z,17.19
2019-05-25T14:29:54.764Z,17.96
2019-05-25T14:32:44.536Z,18.18
2019-05-25T14:35:34.410Z,17.81
2019-05-25T14:38:43.429Z,18.48
2019-05-25T14:41:33.266Z,19.61
2019-05-25T14:44:23.052Z,19.82
2019-05-25T14:47:12.824Z,20.61
2019-05-25T14:50:02.612Z,21.42
2019-05-25T14:52:32.990Z,22.34
2019-05-25T14:55:22.795Z,23.20
2019-05-25T14:58:12.994Z,23.78
2019-05-25T15:00:56.089Z,24.17
2019-05-25T15:03:45.869Z,24.42
2019-05-25T15:06:35.710Z,24.82
2019-05-25T15:09:25.553Z,25.16
2019-05-25T15:12:15.332Z,25.45
2019-05-25T15:15:05.701Z,25.97
2019-05-25T15:17:37.681Z,26.89
2019-05-25T15:20:28.699Z,27.19
2019-05-25T15:23:18.489Z,27.52
2019-05-25T15:26:08.286Z,27.90
2019-05-25T15:28:58.061Z,28.69
2019-05-25T15:31:28.443Z,29.56
2019-05-25T15:34:18.239Z,30.28
2019-05-25T15:37:08.011Z,29.98
2019-05-25T15:39:38.398Z,29.78
2019-05-25T15:42:28.179Z,29.97
2019-05-25T15:45:17.997Z,29.77
2019-05-25T15:48:07.751Z,28.94
2019-05-25T15:50:57.525Z,28.61
2019-05-25T15:53:47.269Z,28.12
2019-05-25T15:56:17.760Z,26.33
2019-05-25T15:59:07.523Z,25.38
2019-05-25T16:01:57.297Z,26.33
2019-05-25T16:04:29.375Z,25.33
2019-05-25T16:07:19.154Z,25.53
2019-05-25T16:13:33.083Z,23.17
2019-05-25T16:16:03.471Z,21.83
2019-05-25T16:18:53.253Z,20.89
2019-05-25T16:21:43.010Z,19.95
2019-05-25T16:24:32.789Z,19.98
2019-05-25T16:27:22.541Z,19.76
2019-05-25T16:30:51.721Z,19.32
2019-05-25T16:33:41.455Z,19.80
2019-05-25T16:36:31.271Z,21.85
2019-05-25T16:39:21.036Z,23.41
2019-05-25T16:41:51.427Z,23.58
2019-05-25T16:44:41.324Z,22.90
2019-05-25T16:47:42.632Z,21.84
2019-05-25T16:53:39.348Z,22.12
2019-05-25T16:56:29.137Z,22.30
2019-05-25T16:59:18.913Z,22.99
2019-05-25T17:02:08.683Z,23.92
2019-05-25T17:04:39.069Z,23.57
2019-05-25T17:07:28.850Z,24.34
2019-05-25T17:10:18.656Z,26.09
2019-05-25T17:13:08.436Z,27.52
2019-05-25T17:15:58.247Z,28.95
2019-05-25T17:18:47.985Z,29.19
2019-05-25T17:21:18.456Z,29.00
2019-05-25T17:24:08.280Z,28.95
2019-05-25T17:26:58.116Z,29.79
2019-05-25T17:29:47.895Z,31.08
2019-05-25T17:32:18.450Z,31.90
2019-05-25T17:35:08.524Z,32.49
2019-05-25T17:37:38.896Z,33.10
2019-05-25T17:40:28.661Z,32.92
2019-05-25T17:43:18.481Z,32.67
2019-05-25T17:46:08.283Z,33.23
2019-05-25T17:48:58.111Z,33.78
2019-05-25T17:51:47.884Z,34.68
2019-05-25T17:54:18.457Z,35.74
2019-05-25T17:57:08.236Z,36.22
2019-05-25T17:59:59.598Z,36.32
2019-05-25T18:02:49.542Z,36.74
2019-05-25T18:05:39.365Z,37.91
2019-05-25T18:08:29.130Z,38.36
2019-05-25T18:11:18.924Z,39.03
2019-05-25T18:14:09.188Z,39.60
2019-05-25T18:16:59.047Z,41.33
2019-05-25T18:19:29.373Z,42.75
2019-05-25T18:22:19.199Z,44.27
2019-05-25T18:25:08.996Z,45.41
2019-05-25T18:27:58.784Z,46.08
2019-05-25T18:30:48.656Z,47.03
2019-05-25T18:33:38.449Z,48.12
2019-05-25T18:36:28.313Z,48.84
2019-05-25T18:39:18.160Z,49.61
2019-05-25T18:42:07.959Z,50.43
2019-05-25T18:44:57.741Z,51.21
2019-05-25T18:47:47.536Z,52.23
2019-05-25T18:50:57.355Z,52.86
2019-05-25T18:53:47.159Z,53.52
2019-05-25T18:56:36.984Z,54.32
2019-05-25T18:59:26.740Z,55.22
2019-05-25T19:01:57.297Z,56.22
2019-05-25T19:04:58.270Z,56.58
2019-05-25T19:07:30.170Z,57.60
2019-05-25T19:10:40.459Z,58.49
2019-05-25T19:13:30.232Z,58.44
2019-05-25T19:16:20.058Z,58.57
2019-05-25T19:19:09.843Z,59.13
2019-05-25T19:21:40.309Z,59.60
2019-05-25T19:24:30.089Z,60.29
2019-05-25T19:27:20.163Z,60.96
2019-05-25T19:30:49.409Z,61.31
2019-05-25T19:33:39.207Z,61.64
2019-05-25T19:36:28.997Z,61.65
2019-05-25T19:39:18.795Z,62.21
2019-05-25T19:42:08.620Z,61.97
2019-05-25T19:44:58.405Z,61.67
2019-05-25T19:47:48.182Z,61.78
2019-05-25T19:50:18.605Z,61.94
2019-05-25T19:53:08.439Z,62.08
2019-05-25T19:55:58.226Z,62.34
2019-05-25T19:58:47.989Z,62.37
2019-05-25T20:01:18.419Z,62.34
2019-05-25T20:04:08.204Z,62.18
2019-05-25T20:06:58.104Z,62.20
2019-05-25T20:09:47.891Z,61.85
2019-05-25T20:12:18.304Z,61.94
2019-05-25T20:15:08.254Z,61.99
2019-05-25T20:17:58.077Z,61.80
2019-05-25T20:20:47.878Z,60.91
2019-05-25T20:23:18.341Z,60.99
2019-05-25T20:26:08.151Z,60.52
2019-05-25T20:28:57.916Z,60.55
2019-05-25T20:31:47.726Z,60.74
2019-05-25T20:34:18.301Z,61.13
2019-05-25T20:37:08.088Z,61.22
2019-05-25T20:39:57.915Z,61.44
2019-05-25T20:42:47.661Z,61.53
2019-05-25T20:48:44.650Z,61.59
2019-05-25T20:51:34.461Z,61.81
2019-05-25T20:54:24.275Z,63.05
2019-05-25T20:57:14.062Z,63.27
2019-05-25T21:03:19.660Z,63.63
2019-05-25T21:06:09.439Z,63.77
2019-05-25T21:08:39.894Z,63.70
2019-05-25T21:11:29.681Z,64.04
2019-05-25T21:14:19.445Z,63.87
2019-05-25T21:16:49.868Z,63.94
2019-05-25T21:19:39.676Z,64.26
2019-05-25T21:22:10.075Z,64.99
2019-05-25T21:25:05.523Z,66.12
2019-05-25T21:27:51.415Z,65.42
2019-05-25T21:30:21.943Z,65.72
2019-05-25T21:33:11.745Z,66.18
2019-05-25T21:36:08.123Z,65.82
2019-05-25T21:38:53.026Z,65.34
2019-05-25T21:41:42.956Z,64.97
2019-05-25T21:44:14.962Z,64.80
2019-05-25T21:47:04.755Z,63.43
2019-05-25T21:49:54.514Z,63.24
2019-05-25T21:52:24.954Z,63.68
2019-05-25T21:55:14.791Z,64.03
2019-05-25T21:58:04.576Z,64.60
2019-05-25T22:00:54.488Z,65.04
2019-05-25T22:03:25.028Z,65.75
2019-05-25T22:06:23.739Z,65.68
2019-05-25T22:08:57.736Z,65.47
2019-05-25T22:11:47.492Z,65.49
2019-05-25T22:14:37.251Z,63.52
2019-05-25T22:17:27.033Z,62.12
2019-05-25T22:20:16.922Z,61.67
2019-05-25T22:22:47.282Z,60.67
2019-05-25T22:25:37.072Z,59.47
2019-05-25T22:28:43.487Z,59.80
2019-05-25T22:31:18.288Z,58.42
2019-05-25T22:34:08.069Z,59.42
2019-05-25T22:36:57.864Z,59.98
2019-05-25T22:39:47.639Z,59.61
2019-05-25T22:42:37.423Z,59.47
2019-05-25T22:45:27.176Z,59.09
2019-05-25T22:48:16.939Z,58.85
2019-05-25T22:51:06.709Z,58.23
2019-05-25T22:53:56.460Z,57.43
2019-05-25T22:56:46.218Z,56.97
2019-05-25T22:59:36.027Z,56.49
2019-05-25T23:02:25.792Z,56.61
2019-05-25T23:05:15.667Z,56.77
2019-05-25T23:08:05.569Z,57.43
2019-05-25T23:10:55.341Z,57.47
2019-05-25T23:13:45.100Z,57.38
2019-05-25T23:16:34.891Z,57.57
2019-05-25T23:19:24.632Z,57.65
2019-05-25T23:22:14.437Z,57.84
2019-05-25T23:25:04.177Z,57.97
2019-05-25T23:27:54.001Z,58.32
2019-05-25T23:30:43.773Z,58.50
2019-05-25T23:33:33.592Z,58.74
2019-05-25T23:36:23.380Z,59.36
2019-05-25T23:39:13.115Z,59.42
2019-05-25T23:42:02.898Z,59.40
2019-05-25T23:44:52.653Z,59.37
2019-05-25T23:47:42.409Z,59.72
2019-05-25T23:50:32.156Z,61.34
2019-05-25T23:53:21.937Z,62.38
2019-05-25T23:56:12.071Z,63.03
2019-05-25T23:58:42.633Z,63.37
